Time;durP1;ratioP1;P1;durP2;ratioP2;P2;SDS_P1;SDS_P2;PMS_P1;PMS_P2;Temp;Humidity;BMP_temperature;BMP_pressure;BME280_temperature;BME280_humidity;BME280_pressure;Samples;Min_cycle;Max_cycle;Signal;HPM_P1;HPM_P2
2023/03/08 00:02:18;;;;;;;3.60;1.15;;;;;;;-1.19;77.80;96963.30;1780640;78;21045;-71
2023/03/08 00:04:45;;;;;;;1.77;0.62;;;;;;;-1.24;77.86;96967.80;1776447;79;21054;-67
2023/03/08 00:07:11;;;;;;;3.83;1.52;;;;;;;-1.23;77.99;96967.34;1773146;79;20935;-71
2023/03/08 00:09:38;;;;;;;10.03;2.15;;;;;;;-1.16;77.93;96981.09;1776805;79;21037;-71
2023/03/08 00:12:07;;;;;;;3.63;0.80;;;;;;;-1.10;76.78;96968.92;1772334;79;21072;-70
2023/03/08 00:14:33;;;;;;;3.27;1.02;;;;;;;-1.11;77.93;96972.39;1770079;79;21069;-71
2023/03/08 00:17:01;;;;;;;6.20;1.12;;;;;;;-1.21;78.10;96993.25;1746155;79;21073;-65
2023/03/08 00:19:28;;;;;;;7.40;1.02;;;;;;;-1.32;77.89;96982.66;1778444;79;21075;-61
2023/03/08 00:21:56;;;;;;;1.05;0.40;;;;;;;-1.43;78.03;96996.36;1783127;79;21026;-64
2023/03/08 00:24:23;;;;;;;4.87;1.52;;;;;;;-1.54;77.84;96979.36;1731389;81;20986;-65
2023/03/08 00:26:49;;;;;;;5.12;0.88;;;;;;;-1.63;78.25;96985.24;1727130;82;21063;-63
2023/03/08 00:29:16;;;;;;;5.12;1.17;;;;;;;-1.66;78.19;96981.53;1731539;82;21066;-63
2023/03/08 00:31:42;;;;;;;4.53;1.00;;;;;;;-1.70;78.08;96976.17;1686846;83;21065;-60
2023/03/08 00:34:09;;;;;;;5.00;0.85;;;;;;;-1.73;78.02;96971.65;1727783;81;21092;-67
2023/03/08 00:36:39;;;;;;;4.28;0.90;;;;;;;-1.80;77.98;96978.73;1731664;80;21481;-60
2023/03/08 00:39:05;;;;;;;7.37;1.15;;;;;;;-1.85;77.84;96967.84;1745508;80;21102;-60
2023/03/08 00:41:31;;;;;;;2.92;0.80;;;;;;;-1.84;77.85;96979.77;1748120;79;21022;-61
2023/03/08 00:43:58;;;;;;;14.60;1.25;;;;;;;-1.85;77.75;96985.75;1742149;80;21045;-61
2023/03/08 00:46:25;;;;;;;2.08;1.05;;;;;;;-1.81;77.54;96957.89;1749263;80;21535;-63
2023/03/08 00:48:52;;;;;;;4.87;0.88;;;;;;;-1.84;76.60;96965.70;1747442;80;21498;-58
2023/03/08 00:51:20;;;;;;;2.87;0.90;;;;;;;-1.83;77.36;96973.74;1746464;80;21595;-68
2023/03/08 00:53:47;;;;;;;1.82;0.72;;;;;;;-1.89;77.55;96980.39;1696900;81;21129;-64
2023/03/08 00:56:14;;;;;;;1.95;0.80;;;;;;;-1.89;77.65;96971.45;1715232;82;21405;-69
2023/03/08 00:58:42;;;;;;;3.30;1.10;;;;;;;-1.89;77.53;96973.55;1717089;82;20983;-71
2023/03/08 01:01:16;;;;;;;4.33;0.78;;;;;;;-1.86;77.74;96985.38;1718693;82;21030;-71
2023/03/08 01:03:44;;;;;;;3.10;1.00;;;;;;;-1.82;77.59;96981.37;1714538;82;21016;-71
2023/03/08 01:06:14;;;;;;;4.87;1.17;;;;;;;-1.77;77.35;96975.22;1714369;82;21020;-61
2023/03/08 01:08:41;;;;;;;2.08;0.80;;;;;;;-1.75;77.30;96973.43;1715502;82;21401;-68
2023/03/08 01:11:19;;;;;;;2.85;0.90;;;;;;;-1.73;77.45;96972.47;1716591;82;20902;-63
2023/03/08 01:13:47;;;;;;;4.03;0.90;;;;;;;-1.65;76.72;96969.14;1713614;81;20943;-71
2023/03/08 01:16:27;;;;;;;6.58;1.17;;;;;;;-1.61;78.65;96984.73;1714549;81;21615;-71
2023/03/08 01:18:55;;;;;;;1.70;0.85;;;;;;;-1.66;78.21;96989.21;1716355;82;21135;-70
2023/03/08 01:21:24;;;;;;;3.35;1.00;;;;;;;-1.73;78.10;96975.03;1693124;82;21026;-70
2023/03/08 01:23:51;;;;;;;3.37;1.25;;;;;;;-1.78;78.38;96976.94;1718233;82;21066;-71
2023/03/08 01:26:21;;;;;;;3.17;0.95;;;;;;;-1.79;78.15;96982.97;1718980;82;20981;-68
2023/03/08 01:28:49;;;;;;;9.58;1.35;;;;;;;-1.77;77.93;96968.36;1711893;82;20989;-70
2023/03/08 01:31:23;;;;;;;7.17;1.10;;;;;;;-1.72;77.95;96951.10;1713610;82;21007;-62
2023/03/08 01:33:50;;;;;;;5.05;1.20;;;;;;;-1.68;78.08;96982.07;1737760;80;21074;-66
2023/03/08 01:36:21;;;;;;;13.68;1.10;;;;;;;-1.67;78.21;96997.80;1739830;81;21029;-71
2023/03/08 01:38:49;;;;;;;4.67;0.98;;;;;;;-1.69;78.27;96997.02;1782918;78;21096;-71
2023/03/08 01:41:21;;;;;;;2.95;1.22;;;;;;;-1.73;78.32;96987.82;1782126;78;20942;-71
2023/03/08 01:43:48;;;;;;;4.17;0.93;;;;;;;-1.74;78.33;96992.98;1781987;79;21013;-70
2023/03/08 01:46:32;;;;;;;3.98;1.40;;;;;;;-1.74;78.35;97001.48;1778861;78;20978;-71
2023/03/08 01:49:28;;;;;;;5.58;0.88;;;;;;;-1.69;78.34;96988.52;1774933;78;21089;-68
2023/03/08 01:52:14;;;;;;;4.00;0.80;;;;;;;-1.66;78.24;96996.89;1779226;78;20959;-64
2023/03/08 01:54:56;;;;;;;3.25;0.90;;;;;;;-1.61;78.25;96984.73;1783853;78;21077;-71
2023/03/08 01:57:39;;;;;;;4.28;0.90;;;;;;;-1.56;78.19;96981.17;1784350;78;21038;-71
2023/03/08 02:00:14;;;;;;;6.25;1.30;;;;;;;-1.51;78.12;96981.78;1783399;78;21576;-68
2023/03/08 02:02:49;;;;;;;8.38;1.20;;;;;;;-1.49;77.96;96988.95;1783110;78;21100;-70
2023/03/08 02:05:17;;;;;;;8.35;1.12;;;;;;;-1.53;78.19;97006.63;1782494;78;21013;-70
2023/03/08 02:07:43;;;;;;;3.45;0.82;;;;;;;-1.61;78.15;96971.95;1781606;78;21037;-71
2023/03/08 02:10:12;;;;;;;2.60;1.15;;;;;;;-1.67;78.41;97005.47;1781128;78;21068;-71
2023/03/08 02:12:42;;;;;;;4.37;0.80;;;;;;;-1.70;78.46;97000.48;1784572;78;20962;-70
2023/03/08 02:15:12;;;;;;;3.45;1.30;;;;;;;-1.76;78.51;97003.30;1785005;78;21001;-64
2023/03/08 02:17:41;;;;;;;2.12;0.80;;;;;;;-1.80;78.83;97013.26;1781563;78;21040;-69
2023/03/08 02:20:37;;;;;;;3.20;0.93;;;;;;;-1.84;79.44;97007.45;1784036;78;21061;-71
2023/03/08 02:23:17;;;;;;;4.12;1.00;;;;;;;-1.88;79.77;97001.23;1781541;78;20959;-66
2023/03/08 02:25:51;;;;;;;3.42;1.00;;;;;;;-1.95;79.68;97008.33;1777852;78;20970;-70
2023/03/08 02:28:20;;;;;;;8.08;1.30;;;;;;;-2.01;79.84;97010.31;1780375;78;20947;-70
2023/03/08 02:30:50;;;;;;;5.40;1.20;;;;;;;-2.08;80.04;97015.65;1776383;78;21021;-69
2023/03/08 02:33:17;;;;;;;4.95;1.80;;;;;;;-2.10;80.25;97018.73;1741017;81;20993;-69
2023/03/08 02:35:44;;;;;;;;;;;;;;;-2.11;80.25;97014.49;1773903;78;21156;-71
2023/03/08 02:38:14;;;;;;;2.92;1.05;;;;;;;-2.12;80.15;97024.34;1768475;79;20130;-69
2023/03/08 02:40:47;;;;;;;2.30;0.95;;;;;;;-2.13;80.25;97025.25;1767849;79;21022;-70
2023/03/08 02:43:13;;;;;;;3.10;0.85;;;;;;;-2.12;80.25;97019.23;1768261;79;21734;-70
2023/03/08 02:45:40;;;;;;;3.05;0.85;;;;;;;-2.10;80.24;97025.55;1761141;79;21366;-67
2023/03/08 02:48:07;;;;;;;4.58;1.10;;;;;;;-2.08;80.32;97020.76;1765272;79;21069;-61
2023/03/08 02:50:35;;;;;;;5.55;1.35;;;;;;;-2.05;80.64;97024.47;1768442;79;20993;-71
2023/03/08 02:53:03;;;;;;;4.37;1.77;;;;;;;-2.04;80.68;97031.27;1726750;81;21551;-67
2023/03/08 02:55:30;;;;;;;2.50;0.90;;;;;;;-2.05;80.72;97027.03;1761116;79;21513;-70
2023/03/08 02:57:57;;;;;;;3.72;1.07;;;;;;;-2.05;80.73;97035.98;1766072;79;21098;-68
2023/03/08 03:00:24;;;;;;;3.60;1.47;;;;;;;-2.06;80.76;97027.93;1759393;79;21029;-70
2023/03/08 03:02:51;;;;;;;3.83;1.10;;;;;;;-2.06;80.83;97024.09;1763289;79;21077;-71
2023/03/08 03:05:18;;;;;;;6.73;0.80;;;;;;;-2.03;80.97;97020.14;1764512;79;21040;-66
2023/03/08 03:07:44;;;;;;;3.72;1.00;;;;;;;-2.03;80.86;97031.64;1764151;79;21097;-66
2023/03/08 03:10:12;;;;;;;5.27;0.90;;;;;;;-2.01;80.96;97034.16;1760217;79;20998;-68
2023/03/08 03:12:42;;;;;;;5.25;0.88;;;;;;;-2.00;80.94;97028.59;1766942;79;21473;-68
2023/03/08 03:15:11;;;;;;;3.58;1.02;;;;;;;-2.00;81.02;97046.03;1765640;79;21056;-68
2023/03/08 03:17:38;;;;;;;3.75;1.00;;;;;;;-1.95;81.81;97058.65;1764359;79;21045;-70
2023/03/08 03:20:08;;;;;;;5.08;1.10;;;;;;;-1.94;82.46;97053.91;1765171;79;21079;-62
2023/03/08 03:22:36;;;;;;;2.80;0.82;;;;;;;-1.98;82.33;97063.89;1761511;79;20986;-67
2023/03/08 03:25:05;;;;;;;3.08;0.85;;;;;;;-2.01;82.43;97067.39;1759605;79;21600;-61
2023/03/08 03:27:32;;;;;;;4.90;1.07;;;;;;;-2.00;82.40;97068.22;1762298;79;20995;-58
2023/03/08 03:29:58;;;;;;;3.42;1.00;;;;;;;-2.01;82.47;97064.02;1759156;79;21034;-61
2023/03/08 03:32:26;;;;;;;2.65;0.98;;;;;;;-1.98;82.53;97084.34;1766490;79;21021;-59
2023/03/08 03:34:53;;;;;;;5.17;0.88;;;;;;;-1.95;82.60;97084.22;1762151;78;21139;-59
2023/03/08 03:37:20;;;;;;;3.70;1.02;;;;;;;-1.91;82.57;97075.52;1739404;80;21067;-59
2023/03/08 03:39:47;;;;;;;8.85;2.42;;;;;;;-1.91;82.78;97084.02;1775836;78;20970;-62
2023/03/08 03:42:13;;;;;;;5.20;1.85;;;;;;;-1.87;82.76;97082.20;1783198;78;21477;-59
2023/03/08 03:44:40;;;;;;;3.37;0.90;;;;;;;-1.88;82.98;97098.41;1784948;79;20927;-60
2023/03/08 03:47:07;;;;;;;1.80;0.70;;;;;;;-1.90;82.97;97105.34;1785140;78;21084;-68
2023/03/08 03:49:35;;;;;;;4.28;1.47;;;;;;;-1.90;83.51;97092.55;1783359;78;21340;-68
2023/03/08 03:52:02;;;;;;;2.10;0.90;;;;;;;-1.90;83.62;97100.22;1782704;78;21091;-68
2023/03/08 03:54:32;;;;;;;4.15;0.80;;;;;;;-1.92;83.18;97099.44;1784947;78;20932;-70
2023/03/08 03:56:59;;;;;;;1.17;0.55;;;;;;;-1.97;83.17;97091.94;1783559;78;21488;-69
2023/03/08 03:59:26;;;;;;;2.02;0.60;;;;;;;-1.99;83.18;97098.00;1787052;78;21550;-69
2023/03/08 04:01:53;;;;;;;3.42;0.82;;;;;;;-2.03;83.11;97098.13;1739531;80;21522;-69
2023/03/08 04:04:20;;;;;;;5.30;0.88;;;;;;;-2.06;83.11;97116.14;1742048;80;21529;-70
2023/03/08 04:06:48;;;;;;;2.22;0.88;;;;;;;-2.04;83.33;97125.05;1785240;78;21494;-61
2023/03/08 04:09:17;;;;;;;2.42;0.78;;;;;;;-1.98;83.57;97123.53;1785174;79;21113;-69
2023/03/08 04:11:44;;;;;;;3.95;1.45;;;;;;;-1.94;83.64;97130.63;1784764;78;21108;-69
2023/03/08 04:14:11;;;;;;;2.52;1.15;;;;;;;-1.93;83.65;97123.33;1745376;80;21014;-69
2023/03/08 04:16:39;;;;;;;5.78;1.07;;;;;;;-1.95;84.21;97120.02;1791422;79;21010;-68
2023/03/08 04:19:11;;;;;;;1.95;0.88;;;;;;;-1.98;84.42;97115.03;1783245;79;20989;-69
2023/03/08 04:21:37;;;;;;;3.98;0.82;;;;;;;-2.06;84.57;97104.64;1784243;78;20990;-68
2023/03/08 04:24:05;;;;;;;2.42;0.68;;;;;;;-2.18;83.99;97116.62;1785707;79;21105;-68
2023/03/08 04:26:33;;;;;;;1.47;0.70;;;;;;;-2.27;83.82;97125.47;1785554;78;21038;-68
2023/03/08 04:29:04;;;;;;;1.90;1.17;;;;;;;-2.28;83.96;97132.73;1788060;78;20911;-64
2023/03/08 04:31:30;;;;;;;1.15;0.65;;;;;;;-2.25;84.10;97143.29;1783252;78;20995;-69
2023/03/08 04:33:58;;;;;;;2.08;0.90;;;;;;;-2.18;84.26;97155.42;1777672;79;21034;-67
2023/03/08 04:36:26;;;;;;;3.37;1.10;;;;;;;-2.11;84.36;97162.78;1776460;78;21044;-69
2023/03/08 04:38:54;;;;;;;4.47;1.10;;;;;;;-2.09;84.43;97154.61;1778280;79;21053;-68
2023/03/08 04:41:23;;;;;;;4.78;0.80;;;;;;;-2.05;84.50;97152.31;1778783;79;21173;-67
2023/03/08 04:43:53;;;;;;;1.65;0.90;;;;;;;-1.98;84.62;97138.05;1773787;79;21562;-68
2023/03/08 04:46:24;;;;;;;3.60;1.47;;;;;;;-1.98;84.46;97158.50;1781683;79;21639;-68
2023/03/08 04:48:54;;;;;;;1.57;1.02;;;;;;;-2.00;84.47;97148.77;1776345;79;21009;-69
2023/03/08 04:51:26;;;;;;;4.22;1.07;;;;;;;-2.04;84.37;97150.17;1776270;79;21067;-68
2023/03/08 04:53:54;;;;;;;3.17;1.20;;;;;;;-2.09;84.30;97158.45;1727934;79;21074;-67
2023/03/08 04:56:21;;;;;;;2.60;0.80;;;;;;;-2.14;84.89;97153.95;1778863;79;20998;-67
2023/03/08 04:58:49;;;;;;;2.37;1.05;;;;;;;-2.14;85.20;97145.00;1778005;79;21101;-67
2023/03/08 05:01:21;;;;;;;3.08;1.10;;;;;;;-2.17;85.03;97156.63;1777981;79;21009;-68
2023/03/08 05:03:48;;;;;;;3.77;1.25;;;;;;;-2.19;84.84;97158.39;1776035;78;20996;-68
2023/03/08 05:06:15;;;;;;;5.05;1.07;;;;;;;-2.13;84.96;97154.77;1774885;79;20944;-68
2023/03/08 05:08:43;;;;;;;4.12;1.15;;;;;;;-2.10;84.97;97170.00;1778262;79;21533;-64
2023/03/08 05:11:16;;;;;;;2.85;0.88;;;;;;;-2.08;85.02;97166.95;1779895;79;21506;-68
2023/03/08 05:13:43;;;;;;;4.97;0.95;;;;;;;-2.06;85.10;97183.08;1735985;80;21062;-61
2023/03/08 05:16:09;;;;;;;3.40;1.07;;;;;;;-2.02;85.55;97175.66;1738381;80;21017;-68
2023/03/08 05:18:36;;;;;;;3.87;1.50;;;;;;;-2.03;85.56;97166.33;1737581;80;20991;-68
2023/03/08 05:21:10;;;;;;;4.55;1.77;;;;;;;-2.06;85.55;97162.16;1740373;80;20969;-68
2023/03/08 05:23:37;;;;;;;2.83;1.82;;;;;;;-2.08;85.55;97166.50;1779919;78;21043;-67
2023/03/08 05:26:05;;;;;;;5.12;2.67;;;;;;;-2.11;85.41;97174.28;1780729;78;21024;-69
2023/03/08 05:28:36;;;;;;;6.72;2.05;;;;;;;-2.14;85.41;97171.84;1773692;79;20993;-70
2023/03/08 05:31:06;;;;;;;8.55;3.50;;;;;;;-2.13;85.35;97173.53;1776154;79;20983;-70
2023/03/08 05:33:34;;;;;;;7.75;3.20;;;;;;;-2.13;85.24;97175.23;1776671;79;21081;-65
2023/03/08 05:36:00;;;;;;;7.47;2.10;;;;;;;-2.11;85.22;97183.69;1778668;78;21005;-67
2023/03/08 05:38:28;;;;;;;8.77;3.20;;;;;;;-2.09;85.23;97163.56;1776357;78;21090;-69
2023/03/08 05:40:54;;;;;;;;;;;;;;;-2.10;85.42;97167.02;1779688;79;20960;-64
2023/03/08 05:43:21;;;;;;;4.45;1.45;;;;;;;-2.06;85.48;97192.85;1751063;79;20169;-68
2023/03/08 05:46:06;;;;;;;3.30;1.40;;;;;;;-2.07;85.21;97183.52;1776512;79;21549;-68
2023/03/08 05:48:35;;;;;;;3.98;1.17;;;;;;;-2.07;85.16;97188.64;1776771;79;21087;-69
2023/03/08 05:51:11;;;;;;;4.55;1.20;;;;;;;-1.98;85.32;97201.97;1775884;79;20895;-69
2023/03/08 05:53:39;;;;;;;2.27;1.13;;;;;;;-1.88;85.36;97208.39;1776626;79;21004;-68
2023/03/08 05:56:14;;;;;;;4.40;1.27;;;;;;;-1.75;85.42;97204.48;1774370;79;21564;-71
2023/03/08 05:58:41;;;;;;;2.12;1.42;;;;;;;-1.67;85.25;97212.70;1771663;79;21100;-70
2023/03/08 06:01:13;;;;;;;5.47;1.12;;;;;;;-1.66;85.23;97193.89;1777595;79;20992;-69
2023/03/08 06:03:40;;;;;;;2.90;1.02;;;;;;;-1.61;85.20;97208.62;1733971;80;21113;-69
2023/03/08 06:06:09;;;;;;;12.10;1.42;;;;;;;-1.53;85.28;97210.89;1773975;79;21536;-66
2023/03/08 06:08:36;;;;;;;4.20;1.10;;;;;;;-1.48;85.22;97222.24;1775710;79;21335;-61
2023/03/08 06:11:02;;;;;;;2.72;1.15;;;;;;;-1.42;85.30;97224.10;1775335;79;21573;-71
2023/03/08 06:13:29;;;;;;;3.03;1.17;;;;;;;-1.36;85.21;97226.87;1778964;79;21093;-67
2023/03/08 06:15:58;;;;;;;3.92;1.32;;;;;;;-1.29;84.98;97233.40;1778099;79;21037;-62
2023/03/08 06:18:28;;;;;;;7.67;1.07;;;;;;;-1.26;85.12;97237.14;1775140;79;21037;-73
2023/03/08 06:21:05;;;;;;;2.92;1.10;;;;;;;-1.23;85.07;97247.69;1775690;79;21201;-66
2023/03/08 06:23:34;;;;;;;2.70;1.45;;;;;;;-1.14;85.09;97248.17;1777051;79;20989;-69
2023/03/08 06:26:02;;;;;;;2.98;1.22;;;;;;;-1.03;85.03;97258.45;1774600;79;20914;-64
2023/03/08 06:28:30;;;;;;;3.22;1.10;;;;;;;-1.00;84.91;97254.47;1777039;79;21027;-66
2023/03/08 06:30:57;;;;;;;2.65;1.05;;;;;;;-0.95;84.66;97265.37;1773815;79;21042;-59
2023/03/08 06:33:28;;;;;;;5.03;1.20;;;;;;;-0.94;84.59;97274.71;1775073;79;21540;-60
2023/03/08 06:36:06;;;;;;;5.65;1.87;;;;;;;-0.89;84.80;97272.80;1776982;79;21156;-60
2023/03/08 06:38:36;;;;;;;5.53;1.67;;;;;;;-0.81;84.96;97269.48;1773412;78;21027;-64
2023/03/08 06:41:07;;;;;;;3.70;1.32;;;;;;;-0.65;85.01;97280.37;1738462;81;21108;-58
2023/03/08 06:43:34;;;;;;;3.00;1.30;;;;;;;-0.39;85.08;97290.39;1776274;79;21089;-60
2023/03/08 06:46:12;;;;;;;5.30;1.30;;;;;;;-0.14;84.96;97291.89;1773174;79;21034;-74
2023/03/08 06:48:40;;;;;;;2.90;1.20;;;;;;;-0.07;84.19;97303.56;1774897;79;20990;-69
2023/03/08 06:51:08;;;;;;;6.35;1.67;;;;;;;0.04;84.58;97316.77;1768291;79;21414;-64
2023/03/08 06:53:35;;;;;;;7.58;1.75;;;;;;;0.18;84.58;97314.42;1770826;79;21080;-68
2023/03/08 06:56:02;;;;;;;4.45;1.62;;;;;;;0.27;84.26;97320.05;1768214;79;21057;-63
2023/03/08 06:58:30;;;;;;;4.37;1.25;;;;;;;0.27;83.97;97320.88;1777495;79;21527;-69
2023/03/08 07:00:58;;;;;;;;;;;;;;;0.40;84.26;97328.89;1780297;79;21052;-63
2023/03/08 07:03:26;;;;;;;3.90;1.07;;;;;;;0.64;84.20;97345.77;1771538;79;20221;-70
2023/03/08 07:06:01;;;;;;;4.15;1.20;;;;;;;0.97;84.09;97355.38;1778307;79;21021;-65
2023/03/08 07:08:29;;;;;;;3.70;1.20;;;;;;;1.32;84.23;97351.16;1777601;79;21056;-65
2023/03/08 07:10:57;;;;;;;5.42;1.87;;;;;;;1.46;84.02;97347.09;1782470;79;20935;-67
2023/03/08 07:13:24;;;;;;;4.83;1.45;;;;;;;1.77;84.31;97356.71;1774224;79;21085;-67
2023/03/08 07:15:51;;;;;;;6.33;1.40;;;;;;;2.14;84.03;97357.44;1776177;79;21006;-64
2023/03/08 07:18:21;;;;;;;3.33;1.02;;;;;;;2.66;84.65;97359.86;1772553;79;21540;-67
2023/03/08 07:21:06;;;;;;;5.08;1.37;;;;;;;2.86;83.72;97368.66;1778940;79;21006;-68
2023/03/08 07:23:29;;;;;;;3.00;1.30;;;;;;;3.12;83.75;97375.44;1749665;79;21057;-65
2023/03/08 07:25:56;;;;;;;2.40;1.12;;;;;;;3.08;82.76;97382.95;1776855;79;21057;-60
2023/03/08 07:28:23;;;;;;;2.83;1.05;;;;;;;3.11;83.24;97390.09;1733994;81;21502;-66
2023/03/08 07:30:52;;;;;;;6.60;0.90;;;;;;;3.34;83.55;97393.98;1771968;79;21739;-63
2023/03/08 07:33:20;;;;;;;4.03;1.15;;;;;;;3.66;83.62;97395.21;1774353;79;21012;-62
2023/03/08 07:35:47;;;;;;;6.55;0.80;;;;;;;3.56;82.79;97388.46;1755606;79;23653;-63
2023/03/08 07:38:14;;;;;;;2.58;0.80;;;;;;;3.55;82.38;97405.30;1725275;80;21000;-64
2023/03/08 07:40:41;;;;;;;;;;;;;;;3.57;82.72;97394.45;1715002;82;21011;-66
2023/03/08 07:43:08;;;;;;;4.35;0.95;;;;;;;3.65;82.12;97405.17;1701521;83;20140;-65
2023/03/08 07:45:37;;;;;;;5.90;1.02;;;;;;;3.88;83.82;97414.66;1742239;80;20970;-64
2023/03/08 07:48:05;;;;;;;1.87;1.00;;;;;;;4.39;83.63;97419.00;1746745;80;21061;-65
2023/03/08 07:50:32;;;;;;;4.12;1.55;;;;;;;4.89;83.51;97419.02;1739196;80;21010;-60
2023/03/08 07:52:59;;;;;;;4.10;0.85;;;;;;;5.43;83.85;97428.62;1743653;80;21124;-66
2023/03/08 07:55:27;;;;;;;1.90;0.57;;;;;;;5.81;82.71;97428.78;1741618;80;21001;-66
2023/03/08 07:57:54;;;;;;;7.10;1.05;;;;;;;6.01;81.23;97431.41;1738151;80;21077;-64
2023/03/08 08:00:23;;;;;;;5.83;0.78;;;;;;;6.02;79.78;97436.50;1745912;80;20983;-68
2023/03/08 08:02:53;;;;;;;4.58;1.02;;;;;;;6.32;81.89;97435.39;1746364;80;21081;-71
2023/03/08 08:05:21;;;;;;;4.08;1.85;;;;;;;6.42;81.04;97436.45;1712245;82;21067;-66
2023/03/08 08:07:48;;;;;;;5.10;0.90;;;;;;;5.86;77.12;97431.91;1744373;80;21039;-67
2023/03/08 08:10:16;;;;;;;;;;;;;;;5.14;78.96;97464.44;1746709;80;20923;-67
2023/03/08 08:12:42;;;;;;;1.95;0.60;;;;;;;4.62;79.13;97462.42;1741538;80;20132;-67
2023/03/08 08:15:10;;;;;;;2.23;0.77;;;;;;;4.19;79.83;97463.61;1746107;80;21687;-64
2023/03/08 08:17:37;;;;;;;3.27;1.20;;;;;;;3.80;80.39;97449.92;1745963;80;21024;-64
2023/03/08 08:20:06;;;;;;;2.58;1.15;;;;;;;3.43;79.82;97461.46;1743250;80;21006;-63
2023/03/08 08:22:35;;;;;;;1.67;0.90;;;;;;;3.05;79.75;97491.41;1743562;80;22015;-63
2023/03/08 08:25:05;;;;;;;3.95;1.05;;;;;;;2.76;79.92;97495.05;1740121;80;21073;-65
2023/03/08 08:27:34;;;;;;;2.52;0.85;;;;;;;2.57;80.40;97503.33;1739448;80;20985;-63
2023/03/08 08:30:08;;;;;;;3.60;1.52;;;;;;;2.52;80.90;97510.02;1722180;81;21009;-64
2023/03/08 08:32:34;;;;;;;2.12;0.65;;;;;;;3.10;80.67;97503.61;1739719;80;21041;-67
2023/03/08 08:35:00;;;;;;;3.42;0.78;;;;;;;2.93;79.18;97517.38;1744297;80;21010;-64
2023/03/08 08:37:29;;;;;;;1.97;0.90;;;;;;;3.00;80.30;97534.20;1776380;78;21089;-64
2023/03/08 08:39:55;;;;;;;5.08;1.20;;;;;;;3.45;82.12;97534.45;1785093;78;21050;-64
2023/03/08 08:42:22;;;;;;;5.10;0.90;;;;;;;3.83;80.83;97534.11;1786467;79;20986;-61
2023/03/08 08:44:49;;;;;;;2.45;1.00;;;;;;;4.51;81.15;97542.34;1786908;78;21009;-64
2023/03/08 08:47:16;;;;;;;2.25;1.35;;;;;;;4.58;78.70;97532.00;1778676;78;21445;-63
2023/03/08 08:49:42;;;;;;;5.00;1.17;;;;;;;4.57;80.66;97552.32;1786547;78;21478;-66
2023/03/08 08:52:09;;;;;;;4.53;2.13;;;;;;;5.26;80.40;97549.99;1785742;78;21005;-66
2023/03/08 08:54:38;;;;;;;2.60;1.00;;;;;;;5.50;80.87;97548.51;1783910;78;20994;-62
2023/03/08 08:57:06;;;;;;;5.58;1.17;;;;;;;5.70;80.15;97551.62;1792032;78;20967;-66
2023/03/08 08:59:33;;;;;;;4.10;0.95;;;;;;;5.66;80.74;97552.73;1783417;78;20987;-65
2023/03/08 09:02:02;;;;;;;1.32;0.40;;;;;;;6.65;82.20;97545.58;1786697;78;21033;-65
2023/03/08 09:04:28;;;;;;;4.05;1.07;;;;;;;6.76;79.74;97535.33;1787955;78;21062;-63
2023/03/08 09:06:55;;;;;;;3.15;1.00;;;;;;;7.43;81.74;97548.56;1780458;78;20950;-66
2023/03/08 09:09:22;;;;;;;3.22;0.95;;;;;;;8.76;82.07;97545.97;1785026;78;21054;-66
2023/03/08 09:11:48;;;;;;;3.20;0.60;;;;;;;8.81;79.01;97550.37;1784602;78;20985;-67
2023/03/08 09:14:15;;;;;;;3.07;0.63;;;;;;;8.11;78.88;97568.84;1789756;78;21345;-65
2023/03/08 09:16:42;;;;;;;2.52;0.60;;;;;;;7.37;79.37;97564.09;1741292;80;20951;-63
2023/03/08 09:19:08;;;;;;;3.37;0.72;;;;;;;6.75;78.44;97571.28;1742770;80;21157;-63
2023/03/08 09:21:35;;;;;;;5.37;0.80;;;;;;;6.39;79.52;97576.63;1729869;81;21570;-63
2023/03/08 09:24:05;;;;;;;5.53;1.00;;;;;;;5.63;79.34;97581.40;1725769;81;21006;-67
2023/03/08 09:26:33;;;;;;;4.15;0.80;;;;;;;4.89;79.29;97590.98;1742799;80;21038;-59
2023/03/08 09:29:04;;;;;;;1.65;0.70;;;;;;;5.56;83.58;97584.37;1749592;80;21085;-60
2023/03/08 09:31:31;;;;;;;2.10;0.98;;;;;;;6.04;81.35;97595.23;1756833;79;21006;-67
2023/03/08 09:33:58;;;;;;;2.60;1.00;;;;;;;5.97;81.48;97583.61;1746213;80;21087;-61
2023/03/08 09:36:27;;;;;;;2.22;1.30;;;;;;;7.97;84.24;97593.22;1750766;80;21041;-60
2023/03/08 09:38:55;;;;;;;4.55;1.10;;;;;;;10.33;84.05;97575.11;1742087;79;20946;-68
2023/03/08 09:41:33;;;;;;;1.32;0.90;;;;;;;12.21;81.46;97584.56;1731745;80;21093;-64
2023/03/08 09:44:23;;;;;;;4.35;1.65;;;;;;;13.55;81.36;97574.14;1738821;80;20977;-69
2023/03/08 09:47:07;;;;;;;4.70;1.70;;;;;;;14.64;80.91;97576.05;1746090;79;20970;-70
2023/03/08 09:49:35;;;;;;;2.50;1.00;;;;;;;16.12;80.96;97566.78;1754739;79;21581;-65
2023/03/08 09:52:07;;;;;;;2.72;0.90;;;;;;;17.05;78.81;97569.22;1734311;81;21021;-71
2023/03/08 09:54:37;;;;;;;5.25;1.35;;;;;;;15.72;75.30;97576.18;1743243;80;21042;-71
2023/03/08 09:57:15;;;;;;;5.17;1.10;;;;;;;15.79;81.67;97583.76;1737569;81;21077;-69
2023/03/08 09:59:59;;;;;;;3.87;1.32;;;;;;;17.42;82.71;97581.03;1694415;82;21401;-67
2023/03/08 10:02:51;;;;;;;3.98;0.80;;;;;;;18.67;82.08;97574.58;1775846;78;21045;-72
2023/03/08 10:05:47;;;;;;;2.33;1.20;;;;;;;18.14;77.96;97578.86;1778052;77;21523;-70
2023/03/08 10:08:32;;;;;;;;;;;;;;;16.70;80.65;97584.86;1781871;78;21163;-67
2023/03/08 10:11:06;;;;;;;1.75;0.93;;;;;;;16.01;77.19;97594.72;1719621;81;20478;-64
2023/03/08 10:13:39;;;;;;;2.10;0.70;;;;;;;16.30;83.53;97589.06;1713102;81;21006;-67
2023/03/08 10:16:28;;;;;;;1.47;0.80;;;;;;;17.00;81.52;97599.23;1713688;81;21033;-66
2023/03/08 10:19:15;;;;;;;3.37;1.40;;;;;;;17.06;80.44;97601.71;1710268;81;21017;-69
2023/03/08 10:21:44;;;;;;;4.45;1.10;;;;;;;16.84;83.42;97603.19;1686006;83;21120;-69
2023/03/08 10:24:46;;;;;;;2.77;1.20;;;;;;;18.92;83.71;97599.87;1710827;81;21005;-72
2023/03/08 10:27:26;;;;;;;4.45;1.10;;;;;;;20.44;83.25;97593.79;1711487;81;20986;-75
2023/03/08 10:29:58;;;;;;;2.15;1.30;;;;;;;21.80;80.96;97596.44;1711405;81;21797;-70
2023/03/08 10:32:27;;;;;;;3.25;1.10;;;;;;;23.65;81.39;97593.89;1714537;81;21779;-68
2023/03/08 10:35:03;;;;;;;8.28;1.30;;;;;;;24.61;77.57;97585.16;1704464;82;21155;-72
2023/03/08 10:37:32;;;;;;;2.08;1.20;;;;;;;25.36;79.58;97600.48;1714124;81;21180;-70
2023/03/08 10:40:12;;;;;;;2.27;0.90;;;;;;;26.52;77.69;97599.69;1715221;81;21061;-72
2023/03/08 10:42:44;;;;;;;2.40;0.80;;;;;;;27.12;78.76;97600.67;1680643;83;21095;-73
2023/03/08 10:45:21;;;;;;;1.85;0.80;;;;;;;27.84;77.10;97594.64;1683685;82;20953;-73
2023/03/08 10:48:04;;;;;;;3.10;0.82;;;;;;;27.91;76.16;97589.67;1712324;82;20933;-69
2023/03/08 10:50:35;;;;;;;2.15;0.82;;;;;;;28.38;77.43;97602.98;1712996;82;20902;-73
2023/03/08 10:53:12;;;;;;;2.17;1.05;;;;;;;28.83;75.19;97596.86;1717442;82;20962;-73
2023/03/08 10:55:46;;;;;;;2.58;1.35;;;;;;;29.11;75.68;97603.55;1707195;82;21059;-67
2023/03/08 10:58:36;;;;;;;1.62;0.93;;;;;;;29.83;76.77;97595.27;1716643;80;21576;-69
2023/03/08 11:01:34;;;;;;;1.60;1.00;;;;;;;30.41;74.14;97615.37;1696394;82;20999;-72
2023/03/08 11:04:17;;;;;;;3.20;0.78;;;;;;;30.41;73.10;97596.53;1630188;86;21131;-74
2023/03/08 11:06:44;;;;;;;2.35;0.90;;;;;;;30.58;73.12;97603.72;1635930;86;21561;-69
2023/03/08 11:09:26;;;;;;;3.33;1.10;;;;;;;31.26;73.52;97610.33;1612672;86;21053;-72
2023/03/08 11:11:56;;;;;;;4.08;0.88;;;;;;;32.02;71.61;97616.01;1653380;84;21595;-71
2023/03/08 11:14:25;;;;;;;1.47;0.88;;;;;;;32.53;69.96;97612.18;1684499;82;21129;-70
2023/03/08 11:17:17;;;;;;;1.72;1.05;;;;;;;33.09;70.66;97604.20;1691551;83;21663;-63
2023/03/08 11:20:09;;;;;;;3.12;0.80;;;;;;;33.01;68.28;97614.19;1692211;83;21021;-70
2023/03/08 11:22:52;;;;;;;1.62;0.90;;;;;;;33.32;68.25;97613.66;1687302;83;21029;-69
2023/03/08 11:25:26;;;;;;;3.12;1.07;;;;;;;33.65;66.92;97625.02;1687964;82;21683;-66
2023/03/08 11:28:07;;;;;;;3.85;1.25;;;;;;;32.60;62.42;97636.23;1688229;83;21552;-72
2023/03/08 11:30:56;;;;;;;2.58;0.70;;;;;;;30.16;64.79;97629.84;1689365;83;21010;-67
2023/03/08 11:33:40;;;;;;;1.17;0.50;;;;;;;27.50;60.58;97636.97;1664424;83;21123;-71
2023/03/08 11:36:35;;;;;;;1.60;1.00;;;;;;;26.32;61.80;97631.18;1644998;85;21066;-70
2023/03/08 11:39:19;;;;;;;3.37;0.98;;;;;;;24.32;62.89;97643.87;1641150;85;21044;-72
2023/03/08 11:41:59;;;;;;;4.28;1.37;;;;;;;20.95;59.38;97655.27;1720276;80;21580;-68
2023/03/08 11:45:01;;;;;;;4.80;1.50;;;;;;;20.22;61.75;97657.88;1775427;79;21023;-71
2023/03/08 11:47:47;;;;;;;2.62;1.40;;;;;;;20.63;61.92;97656.03;1776060;79;21009;-74
2023/03/08 11:50:33;;;;;;;3.50;1.90;;;;;;;20.33;60.08;97658.73;1778447;79;20991;-70
2023/03/08 11:53:24;;;;;;;4.97;2.15;;;;;;;22.38;62.08;97659.42;1718319;82;21570;-74
2023/03/08 11:56:14;;;;;;;4.15;2.17;;;;;;;25.76;60.88;97650.88;1685401;82;21734;-72